Details From LTBA - Istanbul Ataturk
To LTBF - BALIKESIR
Flight Number -
Tags generated
Created
Modified
Stats Distance 91 nm / 169 km
Max Altitude 300 ft / 91 m
Waypoints 3
Social Downloads 0
Likes 0
Share VATSIM

Download

Looking for another format? Having issues loading an existing format? Contact us
Advertisement - Login to hide

Notes

Basic altitude profile: - Ascent Rate: 2500ft/min - Ascent Speed: 250kts - Cruise Altitude: 35000ft - Cruise Speed: 420kts - Descent Rate: 1500ft/min - Descent Speed: 250kts Options: - Use NATs: yes - Use PACOTS: yes - Use low airways: yes - Use high airways: yes

Route

LTBA IST LTBF

ID Type Via Altitude Latitude Longitude Leg Dist Tot Dist Heading (true) Name
O LTBA APT - 0 ft / 0 m 40.97914˚ 28.81283˚ - 0 nm - Istanbul Ataturk
IST VOR - 300 ft / 91 m 40.96250˚ 28.80972˚ 1 nm 1 nm 188° / 188° ISTANBUL VORTAC
O LTBF APT - 0 ft / 0 m 39.61926˚ 27.92596˚ 90 nm 91 nm 207° / 206° BALIKESIR

Altitude Profile

Advertisement - Login to hide

LTBA

Details ICAO LTBA (IST)
Name Istanbul Ataturk
Region Turkey
Timezone Europe/Istanbul (UTC+3.0)
Stats Elevation 163 ft / 50 m (AMSL)
Location 40.979136° 28.812832°
Runways 3
Magnetic Variation 5.428° E

METAR

LTBA 120050Z 22013KT 170V260 CAVOK 13/10 Q1022 NOSIG

Decode

TAF

Not found

Departure Runways

ID Width Length Bearing (true) Bearing (mag) Surface Threshold Offset Overrun Length
05 197 ft / 60 m 8,514 ft / 2,595 m 58.64° 53.21° Concrete 400 ft / 122 m 197 ft / 60 m
17L 148 ft / 45 m 9,820 ft / 2,993 m 178.48° 173.05° Concrete 0 ft / 0 m 197 ft / 60 m
17R 148 ft / 45 m 9,858 ft / 3,005 m 178.49° 173.06° Concrete 0 ft / 0 m 0 ft / 0 m
23 197 ft / 60 m 8,514 ft / 2,595 m 238.65° 233.22° Concrete 0 ft / 0 m 197 ft / 60 m
35L 148 ft / 45 m 9,858 ft / 3,005 m 358.49° 353.06° Concrete 0 ft / 0 m 200 ft / 61 m
35R 148 ft / 45 m 9,820 ft / 2,993 m 358.48° 353.05° Concrete 0 ft / 0 m 197 ft / 60 m

LTBF

Details ICAO LTBF (BZI)
Name BALIKESIR
Region Turkey
Timezone Europe/Istanbul (UTC+3.0)
Stats Elevation 340 ft / 104 m (AMSL)
Location 39.619259° 27.925960°
Runways 1
Magnetic Variation 5.141° E

METAR

LTBF 120050Z 24004KT 6000 NSC 05/05 Q1025 NOSIG

Decode

TAF

Not found

Destination Runways

ID Width Length Bearing (true) Bearing (mag) Surface Threshold Offset Overrun Length
18 144 ft / 44 m 9,827 ft / 2,995 m 182.16° 177.02° Asphalt 0 ft / 0 m 527 ft / 161 m
36 144 ft / 44 m 9,827 ft / 2,995 m 2.16° 357.02° Asphalt 0 ft / 0 m 520 ft / 159 m

Popular Alternatives